createdAt,value
2019-03-31T00:00:19.777Z,1017.24
2019-03-31T00:01:23.987Z,1017.24
2019-03-31T00:02:28.187Z,1017.27
2019-03-31T00:03:32.417Z,1017.25
2019-03-31T00:04:36.640Z,1017.27
2019-03-31T00:05:40.871Z,1017.26
2019-03-31T00:06:45.044Z,1017.27
2019-03-31T00:07:49.330Z,1017.32
2019-03-31T00:08:53.523Z,1017.35
2019-03-31T00:09:57.742Z,1017.32
2019-03-31T00:11:01.934Z,1017.31
2019-03-31T00:12:06.126Z,1017.32
2019-03-31T00:13:10.359Z,1017.31
2019-03-31T00:14:14.576Z,1017.35
2019-03-31T00:15:18.918Z,1017.35
2019-03-31T00:16:23.093Z,1017.38
2019-03-31T00:17:27.301Z,1017.37
2019-03-31T00:18:31.487Z,1017.35
2019-03-31T00:19:35.700Z,1017.36
2019-03-31T00:20:39.947Z,1017.33
2019-03-31T00:21:44.144Z,1017.36
2019-03-31T00:22:48.366Z,1017.36
2019-03-31T00:23:52.548Z,1017.37
2019-03-31T00:24:56.654Z,1017.37
2019-03-31T00:26:01.044Z,1017.36
2019-03-31T00:27:05.192Z,1017.37
2019-03-31T00:28:09.377Z,1017.35
2019-03-31T00:29:13.596Z,1017.37
2019-03-31T00:30:17.917Z,1017.42
2019-03-31T00:31:22.760Z,1017.41
2019-03-31T00:32:26.316Z,1017.39
2019-03-31T00:33:30.513Z,1017.37
2019-03-31T00:34:34.714Z,1017.44
2019-03-31T00:35:38.980Z,1017.46
2019-03-31T00:36:43.180Z,1017.44
2019-03-31T00:37:47.407Z,1017.45
2019-03-31T00:38:51.758Z,1017.51
2019-03-31T00:39:55.971Z,1017.54
2019-03-31T00:41:00.152Z,1017.55
2019-03-31T00:42:04.394Z,1017.57
2019-03-31T00:43:08.608Z,1017.57
2019-03-31T00:44:12.896Z,1017.65
2019-03-31T00:45:17.052Z,1017.65
2019-03-31T00:46:21.311Z,1017.66
2019-03-31T00:47:25.481Z,1017.66
2019-03-31T00:48:29.713Z,1017.68
2019-03-31T00:49:33.921Z,1017.71
2019-03-31T00:50:38.204Z,1017.70
2019-03-31T00:51:42.466Z,1017.74
2019-03-31T00:52:46.701Z,1017.75
2019-03-31T00:53:50.881Z,1017.77
2019-03-31T00:54:55.091Z,1017.75
2019-03-31T00:55:59.274Z,1017.80
2019-03-31T00:57:03.516Z,1017.78
2019-03-31T00:58:07.709Z,1017.79
2019-03-31T00:59:11.919Z,1017.83
2019-03-31T01:00:16.086Z,1017.83
2019-03-31T01:01:20.346Z,1017.88
2019-03-31T01:02:24.592Z,1017.86
2019-03-31T01:03:28.860Z,1017.88
2019-03-31T01:04:33.158Z,1017.91
2019-03-31T01:05:37.259Z,1017.93
2019-03-31T01:06:41.522Z,1017.92
2019-03-31T01:07:45.686Z,1017.98
2019-03-31T01:08:49.854Z,1018.00
2019-03-31T01:09:54.159Z,1018.02
2019-03-31T01:10:58.325Z,1018.03
2019-03-31T01:12:02.633Z,1018.06
2019-03-31T01:13:06.893Z,1018.04
2019-03-31T01:14:11.043Z,1018.05
2019-03-31T01:15:15.331Z,1018.05
2019-03-31T01:16:19.452Z,1018.10
2019-03-31T01:17:23.812Z,1018.08
2019-03-31T01:18:27.945Z,1018.08
2019-03-31T01:19:32.184Z,1018.08
2019-03-31T01:20:36.423Z,1018.12
2019-03-31T01:21:40.631Z,1018.11
2019-03-31T01:22:44.723Z,1018.10
2019-03-31T01:23:49.009Z,1018.13
2019-03-31T01:24:56.093Z,1018.12
2019-03-31T01:26:00.581Z,1018.12
2019-03-31T01:27:03.464Z,1018.13
2019-03-31T01:28:07.698Z,1018.13
2019-03-31T01:29:11.984Z,1018.12
2019-03-31T01:30:16.120Z,1018.11
2019-03-31T01:31:20.441Z,1018.12
2019-03-31T01:32:24.628Z,1018.10
2019-03-31T01:33:28.804Z,1018.13
2019-03-31T01:34:33.092Z,1018.13
2019-03-31T01:35:37.234Z,1018.13
2019-03-31T01:36:41.472Z,1018.14
2019-03-31T01:37:45.554Z,1018.14
2019-03-31T01:38:49.711Z,1018.16
2019-03-31T01:39:53.965Z,1018.16
2019-03-31T01:40:58.168Z,1018.14
2019-03-31T01:42:02.413Z,1018.13
2019-03-31T01:43:06.574Z,1018.16
2019-03-31T01:44:10.777Z,1018.14
2019-03-31T01:45:15.099Z,1018.13
2019-03-31T01:46:19.219Z,1018.14
2019-03-31T01:47:23.548Z,1018.12
2019-03-31T01:48:27.659Z,1018.12
2019-03-31T01:49:31.879Z,1018.10
2019-03-31T01:50:36.117Z,1018.12
2019-03-31T01:51:40.342Z,1018.10
2019-03-31T01:52:44.569Z,1018.06
2019-03-31T01:53:48.761Z,1018.07
2019-03-31T01:54:53.080Z,1018.05
2019-03-31T01:55:57.367Z,1018.08
2019-03-31T01:57:01.475Z,1018.05
2019-03-31T01:58:05.716Z,1018.06
2019-03-31T01:59:10.016Z,1018.07
2019-03-31T02:00:14.174Z,1018.07
2019-03-31T02:01:18.386Z,1018.08
2019-03-31T02:02:22.622Z,1018.08
2019-03-31T02:03:26.861Z,1018.06
2019-03-31T02:04:31.094Z,1018.07
2019-03-31T02:05:35.307Z,1018.09
2019-03-31T02:06:39.524Z,1018.07
2019-03-31T02:07:43.781Z,1018.09
2019-03-31T02:08:47.950Z,1018.04
2019-03-31T02:09:52.298Z,1018.05
2019-03-31T02:10:56.470Z,1018.05
2019-03-31T02:12:00.591Z,1018.07
2019-03-31T02:13:04.862Z,1018.06
2019-03-31T02:14:09.060Z,1018.02
2019-03-31T02:15:13.283Z,1018.03
2019-03-31T02:16:17.446Z,1018.02
2019-03-31T02:17:21.783Z,1018.02
2019-03-31T02:18:25.881Z,1018.01
2019-03-31T02:19:30.105Z,1017.99
2019-03-31T02:20:34.385Z,1017.95
2019-03-31T02:21:38.592Z,1017.93
2019-03-31T02:22:42.816Z,1017.93
2019-03-31T02:23:47.046Z,1017.95
2019-03-31T02:24:51.359Z,1017.95
2019-03-31T02:25:55.609Z,1017.96
2019-03-31T02:26:59.736Z,1017.95
2019-03-31T02:28:03.951Z,1017.92
2019-03-31T02:29:08.183Z,1017.90
2019-03-31T02:30:12.410Z,1017.90
2019-03-31T02:31:16.635Z,1017.90
2019-03-31T02:32:24.146Z,1017.92
2019-03-31T02:33:25.049Z,1017.90
2019-03-31T02:34:29.326Z,1017.90
2019-03-31T02:35:33.513Z,1017.90
2019-03-31T02:36:37.737Z,1017.88
2019-03-31T02:37:41.977Z,1017.90
2019-03-31T02:38:46.167Z,1017.90
2019-03-31T02:39:50.412Z,1017.87
2019-03-31T02:40:54.637Z,1017.85
2019-03-31T02:41:58.848Z,1017.87
2019-03-31T02:43:03.043Z,1017.87
2019-03-31T02:44:07.232Z,1017.87
2019-03-31T02:45:11.499Z,1017.87
2019-03-31T02:46:15.723Z,1017.86
2019-03-31T02:47:19.830Z,1017.84
2019-03-31T02:48:24.118Z,1017.84
2019-03-31T02:49:28.338Z,1017.84
2019-03-31T02:50:32.555Z,1017.86
2019-03-31T02:51:36.722Z,1017.85
2019-03-31T02:52:41.029Z,1017.84
2019-03-31T02:53:45.178Z,1017.83
2019-03-31T02:54:49.503Z,1017.84
2019-03-31T02:55:53.693Z,1017.86
2019-03-31T02:56:57.975Z,1017.82
2019-03-31T02:58:02.133Z,1017.85
2019-03-31T02:59:06.370Z,1017.86
2019-03-31T03:00:10.593Z,1017.89
2019-03-31T03:01:14.794Z,1017.90
2019-03-31T03:02:18.904Z,1017.90
2019-03-31T03:03:23.156Z,1017.88
2019-03-31T03:04:27.431Z,1017.88
2019-03-31T03:05:31.607Z,1017.90
2019-03-31T03:06:35.810Z,1017.93
2019-03-31T03:07:40.008Z,1017.90
2019-03-31T03:08:44.218Z,1017.90
2019-03-31T03:09:48.488Z,1017.91
2019-03-31T03:10:52.689Z,1017.90
2019-03-31T03:11:56.894Z,1017.94
2019-03-31T03:13:01.070Z,1017.94
2019-03-31T03:14:05.303Z,1018.00
2019-03-31T03:15:09.535Z,1018.01
2019-03-31T03:16:13.726Z,1018.00
2019-03-31T03:17:17.957Z,1018.00
2019-03-31T03:18:22.140Z,1018.00
2019-03-31T03:19:26.346Z,1018.00
2019-03-31T03:20:30.586Z,1018.02
2019-03-31T03:21:34.675Z,1018.02
2019-03-31T03:22:38.972Z,1018.03
2019-03-31T03:23:43.187Z,1018.02
2019-03-31T03:24:47.461Z,1018.03
2019-03-31T03:25:56.190Z,1018.04
2019-03-31T03:26:55.955Z,1018.04
2019-03-31T03:28:00.136Z,1018.06
2019-03-31T03:29:04.325Z,1018.06
2019-03-31T03:30:08.552Z,1018.07
2019-03-31T03:31:16.142Z,1018.06
2019-03-31T03:32:17.071Z,1018.07
2019-03-31T03:33:21.239Z,1018.11
2019-03-31T03:34:25.404Z,1018.13
2019-03-31T03:35:29.669Z,1018.13
2019-03-31T03:36:33.878Z,1018.16
2019-03-31T03:37:38.117Z,1018.19
2019-03-31T03:38:42.230Z,1018.18
2019-03-31T03:39:46.514Z,1018.19
2019-03-31T03:40:50.818Z,1018.18
2019-03-31T03:41:54.984Z,1018.21
2019-03-31T03:42:59.210Z,1018.21
2019-03-31T03:44:03.491Z,1018.21
2019-03-31T03:45:07.835Z,1018.24
2019-03-31T03:46:11.984Z,1018.23
2019-03-31T03:47:16.174Z,1018.25
2019-03-31T03:48:20.349Z,1018.27
2019-03-31T03:49:24.598Z,1018.29
2019-03-31T03:50:28.761Z,1018.31
2019-03-31T03:51:33.027Z,1018.33
2019-03-31T03:52:37.220Z,1018.33
2019-03-31T03:53:41.468Z,1018.35
2019-03-31T03:54:45.762Z,1018.37
2019-03-31T03:55:49.962Z,1018.37
2019-03-31T03:56:54.150Z,1018.38
2019-03-31T03:57:58.381Z,1018.36
2019-03-31T03:59:02.589Z,1018.36
2019-03-31T04:00:06.831Z,1018.37
2019-03-31T04:01:11.021Z,1018.38
2019-03-31T04:02:15.241Z,1018.37
2019-03-31T04:03:29.834Z,1018.41
2019-03-31T04:04:23.715Z,1018.40
2019-03-31T04:05:27.990Z,1018.41
2019-03-31T04:06:32.211Z,1018.41
2019-03-31T04:07:36.371Z,1018.43
2019-03-31T04:08:40.579Z,1018.41
2019-03-31T04:09:44.824Z,1018.44
2019-03-31T04:10:49.039Z,1018.43
2019-03-31T04:11:53.446Z,1018.41
2019-03-31T04:12:57.524Z,1018.41
2019-03-31T04:14:01.750Z,1018.40
2019-03-31T04:15:05.955Z,1018.40
2019-03-31T04:16:10.331Z,1018.37
2019-03-31T04:17:14.491Z,1018.39
2019-03-31T04:18:18.776Z,1018.38
2019-03-31T04:19:22.894Z,1018.38
2019-03-31T04:20:27.210Z,1018.38
2019-03-31T04:21:31.384Z,1018.38
2019-03-31T04:22:35.682Z,1018.42
2019-03-31T04:23:39.833Z,1018.43
2019-03-31T04:24:43.994Z,1018.46
2019-03-31T04:25:48.330Z,1018.46
2019-03-31T04:26:52.589Z,1018.46
2019-03-31T04:27:56.859Z,1018.46
2019-03-31T04:29:01.038Z,1018.46
2019-03-31T04:30:05.248Z,1018.43
2019-03-31T04:31:09.472Z,1018.42
2019-03-31T04:32:13.728Z,1018.45
2019-03-31T04:33:17.976Z,1018.44
2019-03-31T04:34:22.265Z,1018.45
2019-03-31T04:35:26.405Z,1018.44
2019-03-31T04:36:30.604Z,1018.43
2019-03-31T04:37:34.834Z,1018.44
2019-03-31T04:38:39.074Z,1018.44
2019-03-31T04:39:43.271Z,1018.46
2019-03-31T04:40:47.431Z,1018.46
2019-03-31T04:41:51.677Z,1018.47
2019-03-31T04:42:55.879Z,1018.46
2019-03-31T04:44:00.065Z,1018.47
2019-03-31T04:45:04.366Z,1018.47
2019-03-31T04:46:08.554Z,1018.50
2019-03-31T04:47:12.805Z,1018.51
2019-03-31T04:48:17.066Z,1018.53
2019-03-31T04:49:21.231Z,1018.56
2019-03-31T04:50:25.497Z,1018.56
2019-03-31T04:51:29.799Z,1018.58
2019-03-31T04:52:34.023Z,1018.62
2019-03-31T04:53:38.162Z,1018.63
2019-03-31T04:54:42.364Z,1018.63
2019-03-31T04:55:46.586Z,1018.67
2019-03-31T04:56:50.837Z,1018.65
2019-03-31T04:57:55.048Z,1018.70
2019-03-31T04:58:59.257Z,1018.69
2019-03-31T05:00:03.489Z,1018.71
2019-03-31T05:01:07.692Z,1018.72
2019-03-31T05:02:11.990Z,1018.74
2019-03-31T05:03:16.149Z,1018.74
2019-03-31T05:04:20.401Z,1018.77
2019-03-31T05:05:24.632Z,1018.75
2019-03-31T05:06:28.813Z,1018.76
2019-03-31T05:07:33.120Z,1018.78
2019-03-31T05:08:37.284Z,1018.77
2019-03-31T05:09:41.586Z,1018.75
2019-03-31T05:10:45.864Z,1018.77
2019-03-31T05:11:50.055Z,1018.81
2019-03-31T05:12:54.374Z,1018.83
2019-03-31T05:13:58.631Z,1018.86
2019-03-31T05:15:02.767Z,1018.86
2019-03-31T05:16:06.980Z,1018.90
2019-03-31T05:17:11.178Z,1018.90
2019-03-31T05:18:15.522Z,1018.89
2019-03-31T05:19:19.729Z,1018.91
2019-03-31T05:20:23.905Z,1018.96
2019-03-31T05:21:28.122Z,1018.97
2019-03-31T05:22:32.416Z,1019.00
2019-03-31T05:23:36.649Z,1018.99
2019-03-31T05:24:40.838Z,1019.07
2019-03-31T05:25:45.033Z,1019.06
2019-03-31T05:26:49.258Z,1019.06
2019-03-31T05:27:53.495Z,1019.10
2019-03-31T05:28:57.629Z,1019.09
2019-03-31T05:30:01.976Z,1019.11
2019-03-31T05:31:06.164Z,1019.16
2019-03-31T05:32:10.385Z,1019.18
2019-03-31T05:33:14.618Z,1019.21
2019-03-31T05:34:19.634Z,1019.24
2019-03-31T05:35:22.992Z,1019.24
2019-03-31T05:36:27.267Z,1019.26
2019-03-31T05:37:31.537Z,1019.29
2019-03-31T05:38:35.799Z,1019.30
2019-03-31T05:39:40.158Z,1019.31
2019-03-31T05:40:44.401Z,1019.32
2019-03-31T05:41:48.763Z,1019.31
2019-03-31T05:42:52.958Z,1019.36
2019-03-31T05:44:05.470Z,1019.35
2019-03-31T05:45:01.557Z,1019.37
2019-03-31T05:46:05.780Z,1019.36
2019-03-31T05:47:10.131Z,1019.39
2019-03-31T05:48:14.369Z,1019.41
2019-03-31T05:49:18.629Z,1019.42
2019-03-31T05:50:22.860Z,1019.44
2019-03-31T05:51:27.117Z,1019.44
2019-03-31T05:52:31.368Z,1019.46
2019-03-31T05:53:35.639Z,1019.48
2019-03-31T05:54:39.838Z,1019.48
2019-03-31T05:55:44.092Z,1019.44
2019-03-31T05:56:48.256Z,1019.47
2019-03-31T05:57:52.562Z,1019.46
2019-03-31T05:58:56.785Z,1019.52
2019-03-31T06:00:00.963Z,1019.51
2019-03-31T06:01:05.282Z,1019.53
2019-03-31T06:02:09.461Z,1019.53
2019-03-31T06:03:13.694Z,1019.56
2019-03-31T06:04:17.951Z,1019.61
2019-03-31T06:05:22.178Z,1019.66
2019-03-31T06:06:26.370Z,1019.66
2019-03-31T06:07:30.673Z,1019.65
2019-03-31T06:08:34.810Z,1019.65
2019-03-31T06:09:39.022Z,1019.67
2019-03-31T06:10:43.239Z,1019.66
2019-03-31T06:11:47.412Z,1019.68
2019-03-31T06:12:51.695Z,1019.69
2019-03-31T06:13:55.922Z,1019.69
2019-03-31T06:15:00.433Z,1019.72
2019-03-31T06:16:04.530Z,1019.75
2019-03-31T06:17:08.686Z,1019.75
2019-03-31T06:18:12.919Z,1019.75
2019-03-31T06:19:17.150Z,1019.76
2019-03-31T06:20:21.388Z,1019.78
2019-03-31T06:21:28.994Z,1019.78
2019-03-31T06:22:29.929Z,1019.79
2019-03-31T06:23:34.137Z,1019.81
2019-03-31T06:24:38.395Z,1019.84
2019-03-31T06:25:42.594Z,1019.85
2019-03-31T06:26:46.835Z,1019.88
2019-03-31T06:27:51.038Z,1019.90
2019-03-31T06:28:55.283Z,1019.87
2019-03-31T06:29:59.568Z,1019.89
2019-03-31T06:31:03.785Z,1019.92
2019-03-31T06:32:08.031Z,1019.93
2019-03-31T06:33:12.286Z,1019.94
2019-03-31T06:34:16.598Z,1019.94
2019-03-31T06:35:20.869Z,1019.95
2019-03-31T06:36:25.168Z,1019.99
2019-03-31T06:37:29.427Z,1020.00
2019-03-31T06:38:33.635Z,1020.06
2019-03-31T06:39:37.932Z,1020.07
2019-03-31T06:40:42.125Z,1020.10
2019-03-31T06:41:46.439Z,1020.09
2019-03-31T06:42:50.640Z,1020.10
2019-03-31T06:43:54.844Z,1020.08
2019-03-31T06:44:59.223Z,1020.16
2019-03-31T06:46:03.446Z,1020.16
2019-03-31T06:47:07.702Z,1020.22
2019-03-31T06:48:11.982Z,1020.24
2019-03-31T06:49:16.162Z,1020.27
2019-03-31T06:50:20.379Z,1020.29
2019-03-31T06:51:24.572Z,1020.32
2019-03-31T06:52:28.835Z,1020.35
2019-03-31T06:53:33.087Z,1020.35
2019-03-31T06:54:37.316Z,1020.35
2019-03-31T06:55:41.537Z,1020.36
2019-03-31T06:56:47.273Z,1020.35
2019-03-31T06:57:50.015Z,1020.35
2019-03-31T06:58:54.263Z,1020.35
2019-03-31T06:59:58.506Z,1020.36
2019-03-31T07:01:02.733Z,1020.37
2019-03-31T07:02:06.960Z,1020.39
2019-03-31T07:03:11.151Z,1020.38
2019-03-31T07:04:15.372Z,1020.42
2019-03-31T07:05:19.691Z,1020.42
2019-03-31T07:06:23.878Z,1020.41
2019-03-31T07:07:28.105Z,1020.46
2019-03-31T07:08:32.295Z,1020.48
2019-03-31T07:09:36.600Z,1020.47
2019-03-31T07:10:40.806Z,1020.49
2019-03-31T07:11:44.983Z,1020.50
2019-03-31T07:12:49.218Z,1020.54
2019-03-31T07:13:53.426Z,1020.58
2019-03-31T07:14:57.644Z,1020.55
2019-03-31T07:16:01.879Z,1020.56
2019-03-31T07:17:06.125Z,1020.60
2019-03-31T07:18:10.340Z,1020.59
2019-03-31T07:19:14.519Z,1020.58
2019-03-31T07:20:18.860Z,1020.59
2019-03-31T07:21:23.078Z,1020.60
2019-03-31T07:22:27.323Z,1020.58
2019-03-31T07:23:31.653Z,1020.62
2019-03-31T07:24:35.821Z,1020.60
2019-03-31T07:25:40.147Z,1020.63
2019-03-31T07:26:44.423Z,1020.62
2019-03-31T07:27:48.620Z,1020.59
2019-03-31T07:28:52.823Z,1020.62
2019-03-31T07:29:57.085Z,1020.64
2019-03-31T07:31:01.315Z,1020.64
2019-03-31T07:32:05.535Z,1020.67
2019-03-31T07:33:09.771Z,1020.70
2019-03-31T07:34:14.008Z,1020.71
2019-03-31T07:35:19.088Z,1020.74
2019-03-31T07:36:22.553Z,1020.74
2019-03-31T07:37:26.727Z,1020.73
2019-03-31T07:38:38.675Z,1020.78
2019-03-31T07:39:35.258Z,1020.82
2019-03-31T07:40:39.710Z,1020.80
2019-03-31T07:41:43.749Z,1020.83
2019-03-31T07:42:50.898Z,1020.84
2019-03-31T07:43:52.155Z,1020.86
2019-03-31T07:44:56.496Z,1020.91
2019-03-31T07:46:00.720Z,1020.89
2019-03-31T07:47:04.989Z,1020.90
2019-03-31T07:48:09.317Z,1020.89
2019-03-31T07:49:13.436Z,1020.90
2019-03-31T07:50:17.662Z,1020.95
2019-03-31T07:51:21.975Z,1020.94
2019-03-31T07:52:26.264Z,1020.93
2019-03-31T07:53:30.422Z,1020.92
2019-03-31T07:54:34.662Z,1020.93
2019-03-31T07:55:39.118Z,1020.92
2019-03-31T07:56:43.147Z,1020.91
2019-03-31T07:57:47.332Z,1020.90
2019-03-31T07:58:51.652Z,1020.92
2019-03-31T07:59:56.686Z,1020.94
2019-03-31T08:01:00.104Z,1020.97
2019-03-31T08:02:04.287Z,1021.00
2019-03-31T08:03:08.500Z,1021.00
2019-03-31T08:04:12.753Z,1020.98
2019-03-31T08:05:16.977Z,1021.00
2019-03-31T08:06:21.279Z,1021.02
2019-03-31T08:07:25.481Z,1021.02
2019-03-31T08:08:29.778Z,1021.02
2019-03-31T08:09:33.942Z,1021.09
2019-03-31T08:10:38.176Z,1021.07
2019-03-31T08:11:42.382Z,1021.09
2019-03-31T08:12:46.669Z,1021.13
2019-03-31T08:13:50.940Z,1021.15
2019-03-31T08:14:55.130Z,1021.16
2019-03-31T08:15:59.359Z,1021.19
2019-03-31T08:17:03.604Z,1021.22
2019-03-31T08:18:07.944Z,1021.23
2019-03-31T08:19:12.108Z,1021.25
2019-03-31T08:20:16.410Z,1021.23
2019-03-31T08:21:20.662Z,1021.24
2019-03-31T08:22:24.841Z,1021.29
2019-03-31T08:23:29.075Z,1021.29
2019-03-31T08:24:33.364Z,1021.31
2019-03-31T08:25:37.583Z,1021.32
2019-03-31T08:26:41.899Z,1021.30
2019-03-31T08:27:46.171Z,1021.31
2019-03-31T08:28:50.392Z,1021.33
2019-03-31T08:30:00.371Z,1021.29
2019-03-31T08:30:58.814Z,1021.30
2019-03-31T08:32:03.080Z,1021.33
2019-03-31T08:33:07.351Z,1021.38
2019-03-31T08:34:11.636Z,1021.39
2019-03-31T08:35:15.798Z,1021.41
2019-03-31T08:36:20.114Z,1021.43
2019-03-31T08:37:24.300Z,1021.45
2019-03-31T08:38:28.574Z,1021.49
2019-03-31T08:39:32.886Z,1021.47
2019-03-31T08:40:37.041Z,1021.45
2019-03-31T08:41:41.328Z,1021.46
2019-03-31T08:42:45.597Z,1021.48
2019-03-31T08:43:49.796Z,1021.46
2019-03-31T08:44:53.997Z,1021.48
2019-03-31T08:45:58.341Z,1021.51
2019-03-31T08:47:02.488Z,1021.59
2019-03-31T08:48:06.740Z,1021.61
2019-03-31T08:49:10.978Z,1021.62
2019-03-31T08:50:15.110Z,1021.65
2019-03-31T08:51:19.384Z,1021.62
2019-03-31T08:52:23.738Z,1021.64
2019-03-31T08:53:27.991Z,1021.67
2019-03-31T08:54:32.248Z,1021.69
2019-03-31T08:55:36.515Z,1021.69
2019-03-31T08:56:40.760Z,1021.70
2019-03-31T08:57:45.086Z,1021.69
2019-03-31T08:58:49.346Z,1021.69
2019-03-31T08:59:53.547Z,1021.70
2019-03-31T09:00:57.798Z,1021.73
2019-03-31T09:02:03.459Z,1021.74
2019-03-31T09:03:06.201Z,1021.74
2019-03-31T09:04:10.533Z,1021.76
2019-03-31T09:05:14.694Z,1021.81
2019-03-31T09:06:18.956Z,1021.84
2019-03-31T09:07:23.134Z,1021.85
2019-03-31T09:08:27.502Z,1021.87
2019-03-31T09:09:31.783Z,1021.83
2019-03-31T09:10:35.989Z,1021.85
2019-03-31T09:11:40.297Z,1021.87
2019-03-31T09:12:44.521Z,1021.90
2019-03-31T09:13:48.769Z,1021.95
2019-03-31T09:14:52.993Z,1021.98
2019-03-31T09:15:57.235Z,1022.03
2019-03-31T09:17:01.442Z,1022.01
2019-03-31T09:18:05.703Z,1022.06
2019-03-31T09:19:10.043Z,1022.05
2019-03-31T09:20:14.251Z,1022.06
2019-03-31T09:21:18.514Z,1022.04
2019-03-31T09:22:22.745Z,1022.06
2019-03-31T09:23:26.939Z,1022.05
2019-03-31T09:24:31.197Z,1022.09
2019-03-31T09:25:35.485Z,1022.02
2019-03-31T09:26:39.690Z,1022.07
2019-03-31T09:27:43.950Z,1022.07
2019-03-31T09:28:48.197Z,1022.08
2019-03-31T09:29:52.408Z,1022.16
2019-03-31T09:30:56.726Z,1022.14
2019-03-31T09:32:00.953Z,1022.16
2019-03-31T09:33:05.200Z,1022.20
2019-03-31T09:34:09.456Z,1022.18
2019-03-31T09:35:13.747Z,1022.16
2019-03-31T09:36:17.920Z,1022.20
2019-03-31T09:37:22.258Z,1022.20
2019-03-31T09:38:26.499Z,1022.22
2019-03-31T09:39:30.742Z,1022.23
2019-03-31T09:40:34.982Z,1022.30
2019-03-31T09:41:39.297Z,1022.32
2019-03-31T09:42:43.503Z,1022.37
2019-03-31T09:43:47.748Z,1022.39
2019-03-31T09:44:51.993Z,1022.38
2019-03-31T09:45:56.264Z,1022.39
2019-03-31T09:47:00.510Z,1022.47
2019-03-31T09:48:04.764Z,1022.45
2019-03-31T09:49:08.989Z,1022.39
2019-03-31T09:50:16.859Z,1022.37
2019-03-31T09:51:17.501Z,1022.37
2019-03-31T09:52:21.793Z,1022.38
2019-03-31T09:53:26.027Z,1022.39
2019-03-31T09:54:30.237Z,1022.40
2019-03-31T09:55:34.475Z,1022.41
2019-03-31T09:56:38.697Z,1022.40
2019-03-31T09:57:42.911Z,1022.42
2019-03-31T09:58:47.244Z,1022.50
2019-03-31T09:59:51.434Z,1022.50
2019-03-31T10:00:55.772Z,1022.54
2019-03-31T10:01:59.910Z,1022.58
2019-03-31T10:03:04.127Z,1022.54
2019-03-31T10:04:08.408Z,1022.55
2019-03-31T10:05:12.672Z,1022.53
2019-03-31T10:06:29.659Z,1022.55
2019-03-31T10:07:23.890Z,1022.59
2019-03-31T10:08:25.403Z,1022.57
2019-03-31T10:09:29.648Z,1022.48
2019-03-31T10:10:34.023Z,1022.51
2019-03-31T10:11:38.195Z,1022.45
2019-03-31T10:12:42.491Z,1022.52
2019-03-31T10:13:46.708Z,1022.58
2019-03-31T10:14:54.123Z,1022.63
2019-03-31T10:15:55.281Z,1022.64
2019-03-31T10:16:59.392Z,1022.62
2019-03-31T10:18:03.721Z,1022.57
2019-03-31T10:19:07.903Z,1022.55
2019-03-31T10:20:12.207Z,1022.62
2019-03-31T10:21:16.432Z,1022.63
2019-03-31T10:22:20.673Z,1022.62
2019-03-31T10:23:24.910Z,1022.65
2019-03-31T10:24:29.175Z,1022.67
2019-03-31T10:25:33.417Z,1022.69
2019-03-31T10:26:37.671Z,1022.73
2019-03-31T10:27:41.929Z,1022.79
2019-03-31T10:28:46.148Z,1022.76
2019-03-31T10:29:50.390Z,1022.79
2019-03-31T10:30:54.620Z,1022.83
2019-03-31T10:31:58.938Z,1022.78
2019-03-31T10:33:03.080Z,1022.75
2019-03-31T10:34:07.358Z,1022.75
2019-03-31T10:35:11.584Z,1022.77
2019-03-31T10:36:15.853Z,1022.76
2019-03-31T10:37:20.102Z,1022.80
2019-03-31T10:38:24.307Z,1022.79
2019-03-31T10:39:28.602Z,1022.81
2019-03-31T10:40:32.966Z,1022.86
2019-03-31T10:41:37.142Z,1022.82
2019-03-31T10:42:41.410Z,1022.89
2019-03-31T10:43:45.669Z,1022.89
2019-03-31T10:44:49.914Z,1022.90
2019-03-31T10:45:54.186Z,1022.91
2019-03-31T10:46:58.658Z,1022.94
2019-03-31T10:48:02.683Z,1022.91
2019-03-31T10:49:07.003Z,1022.93
2019-03-31T10:50:11.220Z,1022.86
2019-03-31T10:51:15.502Z,1022.89
2019-03-31T10:52:19.727Z,1022.94
2019-03-31T10:53:24.069Z,1022.98
2019-03-31T10:54:28.244Z,1022.97
2019-03-31T10:55:32.604Z,1022.96
2019-03-31T10:56:36.765Z,1022.92
2019-03-31T10:57:41.012Z,1022.94
2019-03-31T10:58:45.281Z,1023.01
2019-03-31T10:59:49.523Z,1023.00
2019-03-31T11:00:53.816Z,1022.97
2019-03-31T11:01:58.040Z,1022.94
2019-03-31T11:03:02.272Z,1022.89
2019-03-31T11:04:06.500Z,1022.88
2019-03-31T11:05:10.726Z,1022.91
2019-03-31T11:06:15.047Z,1022.93
2019-03-31T11:07:19.241Z,1023.03
2019-03-31T11:08:23.571Z,1023.03
2019-03-31T11:09:27.756Z,1023.00
2019-03-31T11:10:32.093Z,1022.98
2019-03-31T11:11:36.292Z,1022.95
2019-03-31T11:12:40.651Z,1022.94
2019-03-31T11:13:44.877Z,1022.99
2019-03-31T11:14:49.165Z,1022.96
2019-03-31T11:15:53.325Z,1022.98
2019-03-31T11:16:57.551Z,1023.03
2019-03-31T11:18:01.837Z,1023.03
2019-03-31T11:19:06.111Z,1023.05
2019-03-31T11:20:10.358Z,1023.11
2019-03-31T11:21:14.606Z,1023.10
2019-03-31T11:22:18.877Z,1023.13
2019-03-31T11:23:23.203Z,1023.09
2019-03-31T11:24:27.291Z,1023.12
2019-03-31T11:25:31.562Z,1023.18
2019-03-31T11:26:35.839Z,1023.13
2019-03-31T11:27:40.093Z,1023.11
2019-03-31T11:28:44.412Z,1023.15
2019-03-31T11:29:48.582Z,1023.18
2019-03-31T11:30:52.929Z,1023.22
2019-03-31T11:31:57.228Z,1023.20
2019-03-31T11:33:01.475Z,1023.22
2019-03-31T11:34:05.669Z,1023.19
2019-03-31T11:35:09.940Z,1023.20
2019-03-31T11:36:14.186Z,1023.23
2019-03-31T11:37:18.453Z,1023.25
2019-03-31T11:38:22.822Z,1023.24
2019-03-31T11:39:27.016Z,1023.33
2019-03-31T11:40:31.249Z,1023.35
2019-03-31T11:41:35.555Z,1023.38
2019-03-31T11:42:39.688Z,1023.33
2019-03-31T11:43:43.995Z,1023.29
2019-03-31T11:44:48.270Z,1023.25
2019-03-31T11:45:52.599Z,1023.31
2019-03-31T11:46:56.834Z,1023.31
2019-03-31T11:48:01.075Z,1023.34
2019-03-31T11:49:05.347Z,1023.32
2019-03-31T11:50:09.580Z,1023.30
2019-03-31T11:51:13.905Z,1023.30
2019-03-31T11:52:19.112Z,1023.33
2019-03-31T11:53:23.040Z,1023.30
2019-03-31T11:54:27.208Z,1023.27
2019-03-31T11:55:31.479Z,1023.30
2019-03-31T11:56:35.731Z,1023.29
2019-03-31T11:57:39.969Z,1023.30
2019-03-31T11:58:44.185Z,1023.28
2019-03-31T11:59:49.838Z,1023.23
2019-03-31T12:00:52.779Z,1023.29
2019-03-31T12:01:57.016Z,1023.28
2019-03-31T12:03:01.380Z,1023.31
2019-03-31T12:04:05.544Z,1023.34
2019-03-31T12:05:09.766Z,1023.41
2019-03-31T12:06:14.019Z,1023.37
2019-03-31T12:07:27.726Z,1023.38
2019-03-31T12:08:22.695Z,1023.33
2019-03-31T12:09:26.991Z,1023.38
2019-03-31T12:10:31.198Z,1023.31
2019-03-31T12:11:35.561Z,1023.31
2019-03-31T12:12:39.823Z,1023.31
2019-03-31T12:13:44.186Z,1023.28
2019-03-31T12:14:59.894Z,1023.32
2019-03-31T12:15:52.690Z,1023.29
2019-03-31T12:16:56.943Z,1023.30
2019-03-31T12:18:01.296Z,1023.33
2019-03-31T12:19:05.545Z,1023.36
2019-03-31T12:20:09.897Z,1023.39
2019-03-31T12:21:14.193Z,1023.37
2019-03-31T12:22:18.452Z,1023.38
2019-03-31T12:23:22.844Z,1023.43
2019-03-31T12:24:27.056Z,1023.48
2019-03-31T12:25:31.327Z,1023.50
2019-03-31T12:26:35.680Z,1023.52
2019-03-31T12:27:39.893Z,1023.50
2019-03-31T12:28:44.172Z,1023.55
2019-03-31T12:29:48.425Z,1023.56
2019-03-31T12:30:52.811Z,1023.55
2019-03-31T12:31:56.994Z,1023.59
2019-03-31T12:33:01.365Z,1023.52
2019-03-31T12:34:08.597Z,1023.52
2019-03-31T12:35:11.948Z,1023.53
2019-03-31T12:36:16.322Z,1023.55
2019-03-31T12:37:20.629Z,1023.60
2019-03-31T12:38:24.928Z,1023.63
2019-03-31T12:39:29.369Z,1023.63
2019-03-31T12:40:33.646Z,1023.63
2019-03-31T12:41:37.946Z,1023.66
2019-03-31T12:42:42.250Z,1023.59
2019-03-31T12:43:46.514Z,1023.58
2019-03-31T12:44:50.940Z,1023.54
2019-03-31T12:45:55.219Z,1023.52
2019-03-31T12:46:59.516Z,1023.60
2019-03-31T12:48:03.824Z,1023.58
2019-03-31T12:49:08.092Z,1023.58
2019-03-31T12:50:12.443Z,1023.57
2019-03-31T12:51:16.763Z,1023.57
2019-03-31T12:52:21.112Z,1023.56
2019-03-31T12:53:25.313Z,1023.58
2019-03-31T12:54:29.655Z,1023.61
2019-03-31T12:55:33.922Z,1023.61
2019-03-31T12:56:38.216Z,1023.56